Time;durP1;ratioP1;P1;durP2;ratioP2;P2;SDS_P1;SDS_P2;PMS_P1;PMS_P2;Temp;Humidity;BMP_temperature;BMP_pressure;BME280_temperature;BME280_humidity;BME280_pressure;Samples;Min_cycle;Max_cycle;Signal;HPM_P1;HPM_P2
2022/11/11 00:00:13;;;;;;;5.43;4.93;;;7.70;99.90;;;;;;929132;150;27353;-77
2022/11/11 00:02:40;;;;;;;8.37;5.23;;;7.70;99.90;;;;;;928028;151;27434;-78
2022/11/11 00:05:06;;;;;;;6.70;5.17;;;7.70;99.90;;;;;;929647;151;27411;-78
2022/11/11 00:07:33;;;;;;;6.90;5.50;;;7.70;99.90;;;;;;928470;151;27393;-78
2022/11/11 00:09:59;;;;;;;6.50;5.83;;;7.60;99.90;;;;;;928323;151;27296;-77
2022/11/11 00:12:26;;;;;;;7.30;5.60;;;7.60;99.90;;;;;;927070;151;27363;-78
2022/11/11 00:14:53;;;;;;;9.50;5.07;;;7.60;99.90;;;;;;929218;151;27392;-77
2022/11/11 00:25:15;;;;;;;6.93;4.63;;;7.50;99.90;;;;;;928567;151;27388;-77
2022/11/11 00:27:42;;;;;;;6.00;5.13;;;7.50;99.90;;;;;;927742;150;27859;-77
2022/11/11 00:30:09;;;;;;;6.47;5.40;;;7.40;99.90;;;;;;927951;151;27377;-78
2022/11/11 00:32:35;;;;;;;5.40;4.87;;;7.40;99.90;;;;;;927844;151;27373;-78
2022/11/11 00:37:49;;;;;;;5.53;4.63;;;7.40;99.90;;;;;;929168;151;27457;-79
2022/11/11 00:40:16;;;;;;;6.43;5.27;;;7.40;99.90;;;;;;928850;151;27337;-78
2022/11/11 00:42:42;;;;;;;7.33;5.23;;;7.40;99.90;;;;;;928406;151;27332;-77
2022/11/11 00:45:09;;;;;;;6.57;4.90;;;7.30;99.90;;;;;;929503;151;27325;-78
2022/11/11 00:53:11;;;;;;;4.93;4.43;;;7.30;99.90;;;;;;927975;151;27373;-77
2022/11/11 00:55:38;;;;;;;4.87;4.30;;;7.30;99.90;;;;;;927500;151;27490;-77
2022/11/11 00:58:04;;;;;;;5.37;4.77;;;7.20;99.90;;;;;;928210;151;27357;-77
2022/11/11 01:00:31;;;;;;;6.70;5.23;;;7.20;99.90;;;;;;928453;151;27491;-79
2022/11/11 01:02:57;;;;;;;7.30;5.23;;;7.20;99.90;;;;;;928571;151;27384;-76
2022/11/11 01:05:24;;;;;;;7.33;5.40;;;7.20;99.90;;;;;;927274;151;27388;-77
2022/11/11 01:07:51;;;;;;;6.23;4.90;;;7.10;99.90;;;;;;928868;151;27916;-77
2022/11/11 01:10:38;;;;;;;4.70;4.30;;;7.10;99.90;;;;;;928014;151;27376;-78
2022/11/11 01:13:13;;;;;;;6.43;4.83;;;7.10;99.90;;;;;;928897;151;27388;-79
2022/11/11 01:15:40;;;;;;;10.43;4.87;;;7.00;99.90;;;;;;929450;151;27405;-77
2022/11/11 01:18:06;;;;;;;6.00;5.20;;;7.00;99.90;;;;;;928500;151;27434;-78
2022/11/11 01:20:33;;;;;;;4.70;4.27;;;6.90;99.90;;;;;;929189;151;27369;-77
2022/11/11 01:22:59;;;;;;;6.57;4.77;;;6.90;99.90;;;;;;928038;151;27342;-78
2022/11/11 01:25:26;;;;;;;6.47;4.60;;;6.90;99.90;;;;;;927991;151;27731;-79
2022/11/11 01:27:52;;;;;;;6.80;5.23;;;6.80;99.90;;;;;;929142;151;27408;-77
2022/11/11 01:30:19;;;;;;;19.43;6.53;;;6.80;99.90;;;;;;931780;151;27465;-77
2022/11/11 01:32:46;;;;;;;6.07;4.40;;;6.80;99.90;;;;;;931687;152;27343;-77
2022/11/11 01:35:12;;;;;;;4.97;4.47;;;6.70;99.90;;;;;;932504;152;27348;-77
2022/11/11 01:37:39;;;;;;;5.27;4.70;;;6.70;99.90;;;;;;932457;152;27467;-78
2022/11/11 01:40:06;;;;;;;4.50;4.10;;;6.70;99.90;;;;;;932077;152;27412;-77
2022/11/11 01:42:32;;;;;;;4.77;4.37;;;6.70;99.90;;;;;;932197;152;27371;-78
2022/11/11 01:44:59;;;;;;;5.03;4.40;;;6.70;99.90;;;;;;930454;152;27333;-77
2022/11/11 01:49:17;;;;;;;5.50;4.37;;;6.60;99.90;;;;;;932117;152;27352;-77
2022/11/11 01:49:52;;;;;;;4.50;4.10;;;6.60;99.90;;;;;;927749;152;27395;-78
2022/11/11 01:52:27;;;;;;;4.93;4.43;;;6.60;99.90;;;;;;931763;152;27384;-79
2022/11/11 01:55:03;;;;;;;6.30;4.57;;;6.50;99.90;;;;;;931442;152;27395;-78
2022/11/11 01:57:45;;;;;;;6.60;4.60;;;6.50;99.90;;;;;;931569;152;27372;-78
2022/11/11 02:00:11;;;;;;;4.77;4.27;;;6.50;99.90;;;;;;931659;152;27445;-78
2022/11/11 02:02:41;;;;;;;4.67;4.23;;;6.50;99.90;;;;;;939240;152;27286;-78
2022/11/11 02:07:52;;;;;;;4.63;4.23;;;6.50;99.90;;;;;;925435;154;27433;-78
2022/11/11 02:10:19;;;;;;;4.53;4.13;;;6.50;99.90;;;;;;914501;155;27397;-78
2022/11/11 02:15:30;;;;;;;7.30;4.87;;;6.50;99.90;;;;;;938264;152;27304;-78
2022/11/11 02:17:57;;;;;;;7.97;4.97;;;6.50;99.90;;;;;;927539;152;27795;-78
2022/11/11 02:20:23;;;;;;;5.37;4.77;;;6.50;99.90;;;;;;922827;153;27977;-79
2022/11/11 02:23:11;;;;;;;6.90;4.97;;;6.50;99.90;;;;;;922921;154;27383;-78
2022/11/11 02:25:38;;;;;;;5.57;5.07;;;6.50;99.90;;;;;;931826;152;27317;-78
2022/11/11 02:28:04;;;;;;;7.20;5.43;;;6.60;99.90;;;;;;932083;152;27446;-78
2022/11/11 02:30:31;;;;;;;5.77;5.27;;;6.60;99.90;;;;;;929345;151;27377;-78
2022/11/11 02:32:57;;;;;;;7.43;5.30;;;6.60;99.90;;;;;;928462;151;27777;-79
2022/11/11 02:35:24;;;;;;;6.30;5.50;;;6.60;99.90;;;;;;928473;151;27378;-78
2022/11/11 02:37:51;;;;;;;5.83;5.03;;;6.70;99.90;;;;;;926439;151;27491;-78
2022/11/11 02:40:17;;;;;;;7.33;5.37;;;6.70;99.90;;;;;;928666;151;27406;-77
2022/11/11 02:42:44;;;;;;;7.97;5.43;;;6.80;99.90;;;;;;925998;151;27357;-78
2022/11/11 02:45:10;;;;;;;7.30;5.90;;;6.80;99.90;;;;;;928056;151;27457;-78
2022/11/11 02:47:37;;;;;;;5.90;5.13;;;6.80;99.90;;;;;;929934;151;27470;-79
2022/11/11 02:50:03;;;;;;;6.07;5.20;;;6.80;99.90;;;;;;927474;151;27478;-77
2022/11/11 02:52:30;;;;;;;5.10;4.60;;;6.80;99.90;;;;;;929441;151;27344;-78
2022/11/11 02:54:57;;;;;;;6.67;5.60;;;6.80;99.90;;;;;;928134;151;27429;-78
2022/11/11 02:57:23;;;;;;;6.03;4.97;;;6.90;99.90;;;;;;927698;151;27364;-78
2022/11/11 02:59:50;;;;;;;5.67;5.17;;;6.80;99.90;;;;;;928752;151;27422;-79
2022/11/11 03:02:16;;;;;;;5.70;5.20;;;6.80;99.90;;;;;;928348;151;27960;-78
2022/11/11 03:04:43;;;;;;;5.73;5.10;;;6.80;99.90;;;;;;928196;151;27379;-78
2022/11/11 03:07:10;;;;;;;5.37;4.70;;;6.80;99.90;;;;;;928341;151;27365;-77
2022/11/11 03:09:36;;;;;;;5.10;4.60;;;6.80;99.90;;;;;;929072;151;27458;-78
2022/11/11 03:12:03;;;;;;;5.97;4.57;;;6.80;99.90;;;;;;928860;151;27334;-78
2022/11/11 03:14:29;;;;;;;6.67;4.90;;;6.80;99.90;;;;;;928084;151;27998;-79
2022/11/11 03:19:41;;;;;;;4.87;4.47;;;6.80;99.90;;;;;;927380;151;27356;-79
2022/11/11 03:22:07;;;;;;;4.67;4.27;;;6.80;99.90;;;;;;928533;151;27341;-77
2022/11/11 03:27:19;;;;;;;4.27;3.97;;;6.70;99.90;;;;;;928910;151;27876;-78
2022/11/11 03:29:45;;;;;;;4.77;4.33;;;6.70;99.90;;;;;;929440;151;27959;-78
2022/11/11 03:32:12;;;;;;;5.17;4.40;;;6.70;99.90;;;;;;935737;151;27468;-78
2022/11/11 03:34:39;;;;;;;4.97;4.53;;;6.70;99.90;;;;;;935400;151;27320;-78
2022/11/11 03:39:50;;;;;;;4.67;4.20;;;6.60;99.90;;;;;;935419;151;27393;-78
2022/11/11 03:42:16;;;;;;;4.83;4.27;;;6.60;99.90;;;;;;935450;151;27340;-81
2022/11/11 03:44:43;;;;;;;4.83;4.23;;;6.60;99.90;;;;;;935841;151;27379;-80
2022/11/11 03:47:10;;;;;;;4.97;4.47;;;6.50;99.90;;;;;;935633;151;28807;-78
2022/11/11 03:49:36;;;;;;;5.17;4.63;;;6.50;99.90;;;;;;935319;151;27406;-78
2022/11/11 03:52:03;;;;;;;5.07;4.17;;;6.50;99.90;;;;;;935296;151;27316;-78
2022/11/11 03:54:29;;;;;;;7.10;5.90;;;6.50;99.90;;;;;;935884;151;27379;-78
2022/11/11 03:57:29;;;;;;;4.93;4.43;;;6.50;99.90;;;;;;935582;151;27371;-78
2022/11/11 03:59:22;;;;;;;8.77;4.53;;;6.50;99.90;;;;;;932833;151;27416;-78
2022/11/11 04:21:41;;;;;;;5.17;4.37;;;6.30;99.90;;;;;;935821;151;27433;-78
2022/11/11 04:23:28;;;;;;;4.73;4.33;;;6.30;99.90;;;;;;935437;151;27780;-78
2022/11/11 04:25:55;;;;;;;5.47;4.77;;;6.20;99.90;;;;;;935415;151;27394;-78
2022/11/11 04:31:06;;;;;;;4.57;4.17;;;6.20;99.90;;;;;;932643;151;27318;-80
2022/11/11 04:33:33;;;;;;;4.70;4.13;;;6.10;99.90;;;;;;928835;151;27982;-78
2022/11/11 04:35:59;;;;;;;4.33;4.03;;;6.10;99.90;;;;;;929410;151;27388;-78
2022/11/11 04:41:11;;;;;;;4.43;4.03;;;6.10;99.90;;;;;;927977;151;27448;-78
2022/11/11 04:46:22;;;;;;;4.23;3.93;;;6.10;99.90;;;;;;928833;151;27300;-78
2022/11/11 04:48:49;;;;;;;3.97;3.47;;;6.10;99.90;;;;;;927984;151;27431;-78
2022/11/11 04:51:15;;;;;;;3.43;3.23;;;6.10;99.90;;;;;;929577;151;27401;-78
2022/11/11 04:53:42;;;;;;;4.43;3.67;;;6.10;99.90;;;;;;928053;151;28349;-78
2022/11/11 04:59:14;;;;;;;3.90;3.60;;;6.10;99.90;;;;;;929289;151;27309;-78
2022/11/11 05:03:14;;;;;;;3.70;3.40;;;6.10;99.90;;;;;;926260;151;27464;-78
2022/11/11 05:03:46;;;;;;;3.60;3.30;;;6.10;99.90;;;;;;925428;151;27474;-78
2022/11/11 05:09:00;;;;;;;3.43;3.13;;;6.00;99.90;;;;;;928341;151;27465;-77
2022/11/11 05:11:32;;;;;;;3.10;2.90;;;6.10;99.90;;;;;;929971;151;27383;-77
2022/11/11 05:22:15;;;;;;;3.77;3.40;;;6.00;99.90;;;;;;929077;151;27354;-78
2022/11/11 05:27:27;;;;;;;4.27;3.43;;;6.00;99.90;;;;;;929461;151;27511;-78
2022/11/11 05:29:54;;;;;;;4.00;3.17;;;6.00;99.90;;;;;;928090;151;27469;-78
2022/11/11 05:32:20;;;;;;;5.00;3.87;;;6.00;99.90;;;;;;928116;151;27499;-78
2022/11/11 05:34:47;;;;;;;3.90;3.53;;;6.00;99.90;;;;;;928181;151;27453;-78
2022/11/11 05:37:13;;;;;;;3.90;3.60;;;6.00;99.90;;;;;;929143;151;27419;-78
2022/11/11 05:39:40;;;;;;;3.83;3.50;;;6.00;99.90;;;;;;927659;151;27377;-78
2022/11/11 05:42:06;;;;;;;3.80;3.50;;;6.00;99.90;;;;;;927907;151;27400;-78
2022/11/11 05:44:33;;;;;;;3.80;3.43;;;6.00;99.90;;;;;;930147;151;27396;-78
2022/11/11 05:47:00;;;;;;;3.73;3.43;;;6.00;99.90;;;;;;927636;151;27322;-78
2022/11/11 05:49:26;;;;;;;3.33;3.07;;;6.00;99.90;;;;;;928878;151;27302;-78
2022/11/11 05:51:54;;;;;;;4.20;3.80;;;6.00;99.90;;;;;;928893;151;27326;-78
2022/11/11 05:54:19;;;;;;;5.50;3.57;;;6.10;99.90;;;;;;928775;151;27355;-78
2022/11/11 05:56:46;;;;;;;4.23;3.30;;;6.10;99.90;;;;;;928325;151;27393;-78
2022/11/11 05:59:13;;;;;;;3.80;3.50;;;6.10;99.90;;;;;;928796;151;27325;-78
2022/11/11 06:01:39;;;;;;;3.93;3.63;;;6.20;99.90;;;;;;929341;151;27406;-78
2022/11/11 06:04:06;;;;;;;4.80;3.90;;;6.20;99.90;;;;;;929277;151;27893;-78
2022/11/11 06:06:32;;;;;;;6.63;3.73;;;6.30;99.90;;;;;;928833;151;27384;-78
2022/11/11 06:08:59;;;;;;;3.63;3.33;;;6.30;99.90;;;;;;928344;151;27493;-78
2022/11/11 06:11:26;;;;;;;4.53;3.40;;;6.40;99.90;;;;;;928390;151;27349;-78
2022/11/11 06:13:52;;;;;;;4.40;3.77;;;6.40;99.90;;;;;;927607;151;27359;-78
2022/11/11 06:16:19;;;;;;;3.97;3.67;;;6.40;99.90;;;;;;927420;151;27487;-78
2022/11/11 06:18:45;;;;;;;5.90;3.73;;;6.40;99.90;;;;;;928303;151;27698;-78
2022/11/11 06:21:12;;;;;;;7.87;4.40;;;6.50;99.90;;;;;;927965;151;27810;-78
2022/11/11 06:23:38;;;;;;;5.63;3.87;;;6.50;99.90;;;;;;928554;151;27422;-78
2022/11/11 06:26:14;;;;;;;8.00;3.47;;;6.50;99.90;;;;;;926984;151;27668;-78
2022/11/11 06:28:49;;;;;;;10.80;4.00;;;6.50;99.90;;;;;;927560;151;27431;-78
2022/11/11 06:31:19;;;;;;;4.13;3.30;;;6.50;99.90;;;;;;928622;151;27392;-78
2022/11/11 06:33:46;;;;;;;8.83;4.07;;;6.50;99.90;;;;;;927847;151;27500;-77
2022/11/11 06:36:12;;;;;;;6.27;3.27;;;6.50;99.90;;;;;;928057;151;27964;-78
2022/11/11 06:38:39;;;;;;;4.13;3.73;;;6.50;99.90;;;;;;928019;151;27490;-78
2022/11/11 06:41:05;;;;;;;7.27;3.93;;;6.50;99.90;;;;;;928999;151;27328;-78
2022/11/11 06:43:32;;;;;;;8.87;3.67;;;6.50;99.90;;;;;;929453;151;27451;-78
2022/11/11 06:45:58;;;;;;;5.20;3.43;;;6.50;99.90;;;;;;928189;151;27389;-78
2022/11/11 06:48:25;;;;;;;4.93;3.20;;;6.60;99.90;;;;;;927847;151;27425;-78
2022/11/11 06:50:52;;;;;;;5.43;3.63;;;6.60;99.90;;;;;;927098;151;27325;-78
2022/11/11 06:53:18;;;;;;;7.03;3.60;;;6.60;99.90;;;;;;928546;151;27399;-78
2022/11/11 06:55:45;;;;;;;3.40;3.13;;;6.70;99.90;;;;;;928077;151;27446;-78
2022/11/11 06:58:11;;;;;;;4.30;3.50;;;6.70;99.90;;;;;;927700;151;27383;-78
2022/11/11 07:00:38;;;;;;;3.63;3.30;;;6.70;99.90;;;;;;927519;151;27367;-78
2022/11/11 07:03:05;;;;;;;4.57;3.23;;;6.70;99.90;;;;;;928941;151;27361;-78
2022/11/11 07:05:31;;;;;;;4.77;3.37;;;6.80;99.90;;;;;;927830;151;27353;-77
2022/11/11 07:07:58;;;;;;;12.67;4.03;;;6.80;99.90;;;;;;929515;151;27472;-77
2022/11/11 07:10:24;;;;;;;10.00;3.67;;;6.80;99.90;;;;;;928762;151;27375;-77
2022/11/11 07:12:51;;;;;;;10.07;4.03;;;6.90;99.90;;;;;;927982;151;27385;-77
2022/11/11 07:15:17;;;;;;;4.07;3.70;;;6.90;99.90;;;;;;927931;151;27336;-77
2022/11/11 07:17:44;;;;;;;4.30;3.90;;;7.00;99.90;;;;;;928565;151;27373;-78
2022/11/11 07:20:11;;;;;;;5.73;4.87;;;7.00;99.90;;;;;;928977;151;27372;-78
2022/11/11 07:22:37;;;;;;;8.40;5.90;;;7.10;99.90;;;;;;927936;151;27473;-78
2022/11/11 07:25:04;;;;;;;13.00;7.67;;;7.10;99.90;;;;;;927230;151;27393;-78
2022/11/11 07:27:30;;;;;;;11.17;8.07;;;7.20;99.90;;;;;;927711;151;27345;-78
2022/11/11 07:29:57;;;;;;;12.50;8.40;;;7.30;99.90;;;;;;928413;151;27847;-78
2022/11/11 07:32:24;;;;;;;9.00;7.40;;;7.40;99.90;;;;;;928599;151;27453;-78
2022/11/11 07:34:50;;;;;;;6.67;5.87;;;7.50;99.90;;;;;;927966;151;27926;-78
2022/11/11 07:37:17;;;;;;;5.97;5.43;;;7.60;99.90;;;;;;929683;151;27472;-78
2022/11/11 07:39:43;;;;;;;6.20;5.60;;;7.70;99.90;;;;;;931404;149;27469;-78
2022/11/11 07:42:10;;;;;;;5.03;4.53;;;7.90;99.90;;;;;;930840;151;27334;-78
2022/11/11 07:44:37;;;;;;;5.23;4.47;;;8.10;99.90;;;;;;931171;148;27652;-78
2022/11/11 07:47:03;;;;;;;3.67;3.37;;;8.30;99.90;;;;;;929289;151;27756;-78
2022/11/11 07:49:30;;;;;;;4.83;3.83;;;8.50;99.90;;;;;;928395;151;27381;-78
2022/11/11 07:51:56;;;;;;;3.50;3.20;;;8.80;99.90;;;;;;928377;151;27419;-78
2022/11/11 07:54:23;;;;;;;3.40;3.10;;;9.00;99.90;;;;;;928719;151;27352;-78
2022/11/11 07:56:49;;;;;;;3.60;3.20;;;9.20;99.90;;;;;;927897;151;27282;-78
2022/11/11 07:59:16;;;;;;;3.20;3.00;;;9.30;99.90;;;;;;929112;151;27438;-78
2022/11/11 08:01:43;;;;;;;6.40;3.23;;;9.40;99.90;;;;;;928540;151;27474;-78
2022/11/11 08:04:09;;;;;;;9.33;3.30;;;9.50;99.90;;;;;;928816;151;27871;-78
2022/11/11 08:06:36;;;;;;;3.30;3.00;;;9.50;99.90;;;;;;927424;151;27326;-78
2022/11/11 08:09:02;;;;;;;3.63;3.30;;;9.60;99.90;;;;;;928597;151;27389;-77
2022/11/11 08:14:14;;;;;;;4.67;3.70;;;9.70;99.90;;;;;;928828;151;27349;-78
2022/11/11 08:16:40;;;;;;;6.07;4.83;;;9.70;99.90;;;;;;928435;151;27452;-78
2022/11/11 08:19:07;;;;;;;5.00;4.50;;;9.70;99.90;;;;;;928836;151;27401;-78
2022/11/11 08:21:33;;;;;;;4.57;4.17;;;9.70;99.90;;;;;;928497;151;28006;-78
2022/11/11 08:24:00;;;;;;;4.90;4.40;;;9.70;99.90;;;;;;928859;151;27359;-78
2022/11/11 08:26:27;;;;;;;4.67;4.27;;;9.70;99.90;;;;;;928316;151;27433;-78
2022/11/11 08:28:53;;;;;;;5.17;4.60;;;9.70;99.90;;;;;;928575;151;27477;-78
2022/11/11 08:31:20;;;;;;;8.50;4.30;;;9.70;99.90;;;;;;928209;151;27424;-78
2022/11/11 08:33:46;;;;;;;7.40;4.10;;;9.70;99.90;;;;;;928340;151;27471;-78
2022/11/11 08:36:13;;;;;;;4.37;3.97;;;9.80;99.90;;;;;;927924;151;27352;-78
2022/11/11 08:38:40;;;;;;;5.30;4.13;;;9.80;99.90;;;;;;928346;151;27388;-78
2022/11/11 08:41:06;;;;;;;4.03;3.73;;;9.80;99.90;;;;;;928494;151;27388;-77
2022/11/11 08:43:33;;;;;;;5.50;4.10;;;9.90;99.90;;;;;;927602;151;27400;-78
2022/11/11 08:45:59;;;;;;;4.23;3.70;;;9.90;99.90;;;;;;927138;151;27721;-78
2022/11/11 08:48:26;;;;;;;5.70;5.20;;;9.90;99.90;;;;;;927867;151;28299;-78
2022/11/11 08:50:52;;;;;;;5.87;4.33;;;10.00;99.90;;;;;;927872;151;27397;-78
2022/11/11 08:53:19;;;;;;;6.17;4.97;;;10.00;99.90;;;;;;929143;151;27312;-78
2022/11/11 08:55:46;;;;;;;6.50;4.70;;;10.00;99.90;;;;;;929114;151;27486;-78
2022/11/11 08:58:12;;;;;;;5.93;4.33;;;10.10;99.90;;;;;;928260;151;27829;-78
2022/11/11 09:00:39;;;;;;;5.50;4.90;;;10.10;99.90;;;;;;928522;151;27377;-78
2022/11/11 09:03:11;;;;;;;8.00;5.00;;;10.10;99.90;;;;;;927795;151;27333;-78
2022/11/11 09:05:38;;;;;;;5.60;4.63;;;10.20;99.90;;;;;;929051;151;27834;-79
2022/11/11 09:08:07;;;;;;;6.63;4.43;;;10.20;99.90;;;;;;928799;151;27440;-78
2022/11/11 09:10:33;;;;;;;6.57;5.40;;;10.30;99.90;;;;;;928692;151;27364;-78
2022/11/11 09:13:00;;;;;;;9.93;6.37;;;10.30;99.90;;;;;;928564;151;27380;-78
2022/11/11 09:15:27;;;;;;;9.03;6.83;;;10.40;99.90;;;;;;928867;151;27466;-78
2022/11/11 09:17:53;;;;;;;6.00;5.10;;;10.50;99.90;;;;;;928133;151;27365;-78
2022/11/11 09:20:20;;;;;;;7.60;5.07;;;10.50;99.90;;;;;;928826;151;27410;-78
2022/11/11 09:22:46;;;;;;;4.70;4.20;;;10.70;99.90;;;;;;928392;151;28944;-78
2022/11/11 09:25:13;;;;;;;6.50;4.67;;;10.70;99.90;;;;;;928155;151;27448;-78
2022/11/11 09:27:40;;;;;;;8.63;4.40;;;10.80;99.90;;;;;;928816;151;27357;-78
2022/11/11 09:30:06;;;;;;;10.77;5.23;;;10.90;99.90;;;;;;929651;151;27393;-78
2022/11/11 09:32:33;;;;;;;7.40;4.93;;;11.00;99.90;;;;;;928188;151;27461;-78
2022/11/11 09:34:59;;;;;;;12.43;6.80;;;11.00;99.90;;;;;;928234;151;27357;-78
2022/11/11 09:37:26;;;;;;;18.53;7.40;;;11.10;99.90;;;;;;928828;151;27473;-78
2022/11/11 09:39:55;;;;;;;10.00;5.87;;;11.10;99.90;;;;;;928453;151;27665;-78
2022/11/11 09:42:25;;;;;;;10.63;6.10;;;11.10;99.90;;;;;;928617;151;27396;-77
2022/11/11 09:45:07;;;;;;;15.83;5.27;;;11.20;99.90;;;;;;929095;151;27904;-78
2022/11/11 09:47:51;;;;;;;12.70;5.67;;;11.20;99.90;;;;;;927713;151;27381;-78
2022/11/11 09:50:27;;;;;;;11.63;6.63;;;11.30;99.90;;;;;;921155;151;27483;-78
2022/11/11 09:53:11;;;;;;;7.93;6.10;;;11.30;99.90;;;;;;928181;151;27357;-78
2022/11/11 09:55:37;;;;;;;9.67;5.97;;;11.40;99.90;;;;;;928196;151;27383;-78
2022/11/11 09:58:16;;;;;;;10.07;6.17;;;11.40;99.90;;;;;;928352;151;27388;-78
2022/11/11 10:00:42;;;;;;;8.53;6.60;;;11.40;99.90;;;;;;921885;151;27293;-78
2022/11/11 10:03:15;;;;;;;11.30;6.60;;;11.40;99.90;;;;;;928227;151;27439;-78
2022/11/11 10:05:41;;;;;;;10.20;6.10;;;11.50;99.90;;;;;;927482;151;27401;-78
2022/11/11 10:08:16;;;;;;;7.90;5.77;;;11.50;99.90;;;;;;927266;151;27419;-78
2022/11/11 10:10:49;;;;;;;9.00;6.43;;;11.50;99.90;;;;;;927256;151;27889;-78
2022/11/11 10:13:30;;;;;;;11.80;7.07;;;11.60;99.90;;;;;;927881;151;27418;-78
2022/11/11 10:15:59;;;;;;;13.73;8.83;;;11.60;99.90;;;;;;927947;151;27869;-78
2022/11/11 10:18:26;;;;;;;13.03;8.10;;;11.70;99.90;;;;;;927508;151;29286;-78
2022/11/11 10:20:53;;;;;;;11.50;7.70;;;11.70;99.90;;;;;;926976;151;27671;-78
2022/11/11 10:23:19;;;;;;;8.87;6.20;;;11.80;99.90;;;;;;927732;151;27488;-78
2022/11/11 10:25:46;;;;;;;12.00;6.60;;;11.80;99.90;;;;;;927789;151;27451;-78
2022/11/11 10:28:15;;;;;;;10.10;7.77;;;11.90;99.90;;;;;;926941;151;27396;-78
2022/11/11 10:30:42;;;;;;;14.23;8.50;;;11.90;99.90;;;;;;927408;151;27389;-78
2022/11/11 10:33:27;;;;;;;9.10;7.03;;;11.90;99.90;;;;;;927742;151;27340;-78
2022/11/11 10:35:53;;;;;;;9.07;7.27;;;12.00;99.90;;;;;;926998;151;27484;-78
2022/11/11 10:38:51;;;;;;;11.10;8.57;;;12.10;99.90;;;;;;928583;151;27329;-78
2022/11/11 10:41:26;;;;;;;15.43;10.23;;;12.10;99.90;;;;;;927371;151;27352;-78
2022/11/11 10:43:53;;;;;;;11.47;8.83;;;12.20;99.90;;;;;;927798;151;27345;-78
2022/11/11 10:46:22;;;;;;;19.10;10.33;;;12.30;99.90;;;;;;929195;151;27392;-78
2022/11/11 10:49:11;;;;;;;11.97;9.27;;;12.30;99.90;;;;;;927649;151;27353;-78
2022/11/11 10:51:46;;;;;;;11.07;8.77;;;12.40;99.90;;;;;;928254;151;27422;-78
2022/11/11 10:54:15;;;;;;;10.77;9.27;;;12.50;99.90;;;;;;927973;151;27441;-78
2022/11/11 10:56:56;;;;;;;11.40;8.30;;;12.50;99.90;;;;;;928698;151;27524;-78
2022/11/11 10:59:26;;;;;;;13.37;8.33;;;12.50;99.90;;;;;;928765;151;27396;-79
2022/11/11 11:01:55;;;;;;;9.57;8.47;;;12.60;99.90;;;;;;926897;151;27391;-79
2022/11/11 11:04:40;;;;;;;9.57;7.87;;;12.60;99.90;;;;;;928142;151;27439;-79
2022/11/11 11:07:07;;;;;;;10.07;8.10;;;12.70;99.90;;;;;;928100;151;27751;-78
2022/11/11 11:09:39;;;;;;;8.40;7.50;;;12.80;99.90;;;;;;928459;151;27400;-78
2022/11/11 11:12:24;;;;;;;7.17;6.47;;;12.80;99.90;;;;;;927842;151;27705;-78
2022/11/11 11:14:51;;;;;;;7.93;6.43;;;12.90;99.90;;;;;;928734;151;27373;-79
2022/11/11 11:17:20;;;;;;;9.98;7.10;;;13.00;99.90;;;;;;927832;151;27364;-78
2022/11/11 11:19:47;;;;;;;10.13;6.63;;;13.00;99.90;;;;;;927900;151;27361;-78
2022/11/11 11:22:13;;;;;;;10.08;7.50;;;13.10;99.90;;;;;;926322;151;27330;-78
2022/11/11 11:24:40;;;;;;;6.83;6.12;;;13.10;99.90;;;;;;928471;151;27409;-78
2022/11/11 11:27:06;;;;;;;8.85;7.10;;;13.20;99.90;;;;;;928819;151;27504;-78
2022/11/11 11:29:41;;;;;;;7.75;6.70;;;13.30;99.90;;;;;;928203;151;27377;-78
2022/11/11 11:32:14;;;;;;;9.43;8.25;;;13.30;99.90;;;;;;928345;151;27447;-78
2022/11/11 11:34:46;;;;;;;10.32;8.08;;;13.40;99.90;;;;;;928166;151;27321;-78
2022/11/11 11:37:13;;;;;;;8.93;8.03;;;13.50;99.90;;;;;;929143;151;27387;-78
2022/11/11 11:39:40;;;;;;;8.80;7.90;;;13.50;99.90;;;;;;929156;151;27349;-78
2022/11/11 11:42:06;;;;;;;8.63;7.60;;;13.60;99.90;;;;;;928150;151;27332;-78
2022/11/11 11:44:36;;;;;;;9.00;8.10;;;13.60;99.90;;;;;;929752;151;27357;-78
2022/11/11 11:47:20;;;;;;;8.57;7.67;;;13.60;99.90;;;;;;928871;151;27469;-78
2022/11/11 11:50:11;;;;;;;10.30;9.30;;;13.70;99.90;;;;;;914805;151;27396;-79
2022/11/11 11:52:44;;;;;;;8.70;7.60;;;13.70;99.90;;;;;;927056;151;27404;-78
2022/11/11 11:55:13;;;;;;;9.38;7.67;;;13.70;99.90;;;;;;928696;151;27433;-78
2022/11/11 11:57:51;;;;;;;7.57;6.80;;;13.70;99.90;;;;;;928587;149;27322;-78
2022/11/11 12:00:23;;;;;;;8.08;6.80;;;13.80;99.90;;;;;;913134;153;27363;-78
2022/11/11 12:03:18;;;;;;;7.93;7.00;;;13.80;99.90;;;;;;913056;153;27439;-78
2022/11/11 12:06:00;;;;;;;7.97;7.17;;;13.80;99.90;;;;;;935263;149;27310;-78
2022/11/11 12:08:45;;;;;;;8.45;7.30;;;13.80;99.90;;;;;;911441;153;27353;-78
2022/11/11 12:11:24;;;;;;;8.48;7.60;;;13.80;99.90;;;;;;931552;151;27326;-78
2022/11/11 12:14:02;;;;;;;9.83;8.17;;;13.80;99.90;;;;;;929027;151;27392;-78
2022/11/11 12:16:38;;;;;;;7.90;7.10;;;13.90;99.90;;;;;;930513;151;27362;-77
2022/11/11 12:19:23;;;;;;;8.53;7.55;;;13.90;99.90;;;;;;933941;149;27445;-80
2022/11/11 12:22:05;;;;;;;8.43;7.22;;;13.90;99.90;;;;;;928298;151;27375;-80
2022/11/11 12:24:59;;;;;;;9.10;8.05;;;13.90;99.90;;;;;;934716;149;27456;-79
2022/11/11 12:27:25;;;;;;;9.10;8.20;;;13.90;99.90;;;;;;912416;152;27483;-80
2022/11/11 12:30:13;;;;;;;11.08;9.33;;;13.90;99.90;;;;;;915862;152;27367;-79
2022/11/11 12:32:42;;;;;;;9.75;8.70;;;14.00;99.90;;;;;;934584;149;27431;-80
2022/11/11 12:35:33;;;;;;;8.68;7.55;;;14.00;99.90;;;;;;910279;153;27500;-78
2022/11/11 12:38:14;;;;;;;11.00;8.45;;;14.10;99.90;;;;;;925732;152;28140;-78
2022/11/11 12:40:44;;;;;;;9.80;8.65;;;14.10;99.90;;;;;;926793;152;27344;-80
2022/11/11 12:43:11;;;;;;;9.98;8.98;;;14.20;99.90;;;;;;925981;152;28282;-79
2022/11/11 12:45:49;;;;;;;9.30;8.30;;;14.20;99.90;;;;;;933771;149;27411;-79
2022/11/11 12:48:27;;;;;;;9.90;8.63;;;14.20;99.90;;;;;;917889;152;27757;-79
2022/11/11 12:51:05;;;;;;;9.88;8.50;;;14.20;99.60;;;;;;933062;149;27336;-79
2022/11/11 12:53:32;;;;;;;10.80;9.50;;;14.20;99.50;;;;;;918422;152;27653;-79
2022/11/11 12:56:08;;;;;;;10.60;9.13;;;14.10;99.40;;;;;;919605;152;27353;-79
2022/11/11 12:58:37;;;;;;;10.08;9.08;;;14.10;99.40;;;;;;919096;152;27355;-79
2022/11/11 13:01:34;;;;;;;10.30;9.20;;;14.10;99.30;;;;;;909615;153;27383;-79
2022/11/11 13:04:28;;;;;;;9.40;8.45;;;14.00;99.10;;;;;;917101;152;27393;-79
2022/11/11 13:07:13;;;;;;;10.53;9.43;;;14.00;99.20;;;;;;899691;156;27493;-79
2022/11/11 13:10:09;;;;;;;10.98;9.53;;;14.00;99.20;;;;;;903738;156;27527;-80
2022/11/11 13:12:41;;;;;;;11.23;9.97;;;13.90;99.40;;;;;;921962;149;27309;-80
2022/11/11 13:15:23;;;;;;;12.60;9.87;;;13.90;99.40;;;;;;918830;153;27468;-80
2022/11/11 13:17:50;;;;;;;11.20;9.90;;;13.90;99.40;;;;;;934593;150;27361;-80
2022/11/11 13:20:44;;;;;;;13.28;10.70;;;13.80;99.50;;;;;;920066;152;27373;-80
2022/11/11 13:23:10;;;;;;;12.30;10.80;;;13.80;99.20;;;;;;911342;154;27348;-80
2022/11/11 13:25:37;;;;;;;14.27;10.37;;;13.80;98.90;;;;;;928324;152;27365;-80
2022/11/11 13:28:13;;;;;;;11.10;9.57;;;13.70;98.80;;;;;;926782;152;27426;-80
2022/11/11 13:30:45;;;;;;;11.50;9.57;;;13.70;98.80;;;;;;927843;152;27501;-81
2022/11/11 13:33:11;;;;;;;9.35;8.30;;;13.60;98.90;;;;;;927783;152;28221;-80
2022/11/11 13:35:44;;;;;;;8.90;8.07;;;13.60;98.90;;;;;;927665;152;27354;-80
2022/11/11 13:38:28;;;;;;;9.80;8.80;;;13.50;99.10;;;;;;927084;152;27442;-79
2022/11/11 13:40:55;;;;;;;9.53;8.53;;;13.50;99.40;;;;;;928635;152;27944;-79
2022/11/11 13:43:21;;;;;;;10.63;9.27;;;13.40;99.90;;;;;;927723;152;27474;-79
2022/11/11 13:45:51;;;;;;;11.73;9.03;;;13.40;99.90;;;;;;928073;152;28635;-79
2022/11/11 13:48:18;;;;;;;11.50;9.43;;;13.40;99.90;;;;;;927723;152;27465;-79
2022/11/11 13:50:44;;;;;;;12.20;9.77;;;13.40;99.90;;;;;;926786;152;27491;-79
2022/11/11 13:53:29;;;;;;;10.63;8.87;;;13.40;99.90;;;;;;934809;149;27371;-79
2022/11/11 13:55:56;;;;;;;11.87;9.43;;;13.40;99.90;;;;;;934794;149;27335;-79
2022/11/11 13:58:34;;;;;;;11.43;9.68;;;13.50;99.90;;;;;;918078;152;27386;-79
2022/11/11 14:01:07;;;;;;;11.43;10.23;;;13.50;99.90;;;;;;933834;149;28004;-80
2022/11/11 14:03:36;;;;;;;12.73;10.87;;;13.50;99.90;;;;;;921795;152;27563;-79
2022/11/11 14:06:12;;;;;;;11.20;10.00;;;13.50;99.90;;;;;;933754;148;27621;-79
2022/11/11 14:08:49;;;;;;;12.00;10.47;;;13.50;99.90;;;;;;924312;148;27429;-79
2022/11/11 14:11:26;;;;;;;12.97;10.17;;;13.50;99.90;;;;;;914121;149;27427;-79
2022/11/11 14:13:55;;;;;;;12.17;10.67;;;13.40;99.70;;;;;;918905;152;27418;-79
2022/11/11 14:16:34;;;;;;;13.80;11.03;;;13.30;99.70;;;;;;934820;149;27327;-79
2022/11/11 14:19:19;;;;;;;11.77;10.23;;;13.30;99.70;;;;;;910230;152;27352;-79